Etusivu
METAR-TAF:

METAR-TAF

Lentoasemat :

Revelstoke, Brittiläinen Kolumbia, Kanada

Leveyspiiri: 50-58N, Pituuspiiri: 118-11W, korkeus merenpinnasta: 443 m

Tämänhetkinen sää

Tämä raportti tehtiin 54 minuuttia sitten, kello 16.00 UTC
tyyntä
Lämpötila 11°C
Kosteus 82%
Ilmanpaine 1021 hPa
Näkyvyys: 14.5 km
Hajonneita pilviä 8500 ft:n korkeudessa

METAR: CYRV 031600Z AUTO 00000KT 9SM BKN085 11/08 A3015 RMK SLP219

Aika: 09:54 (16:54 UTC)


TAF: puuttuu

Säähavainnot ja -ennusteet yli 4000 lentoasemalta (METAR- ja TAF-raportit).

Käytössä olevat sääasemat on merkitty karttaan keltaisilla ja punaisilla pisteillä.

Aseta hiiri pisteen päälle nähdäksesi sääaseman nimen.

Klikkaa sitten nähdäksesi säähavainnot ja -ennusteet.

Kartan vaihtaminen: klikkaa mustalla rastilla varustettuja vihreitä pisteitä, niin voit zoomata sisään; viivalla varustettua vihreää pistettä, niin voit zoomata ulos tai vihreitä nuolia, niin pääset viereisille kartoille.


METAR-TAF: